PGT353 LTFJ-LWSK
Flight info
| Callsign | PGT353 |
|---|---|
| Flight time | 1h 3m |
| Altitude | 38000 |
| Route | BARPE1J/06L BARPE UG12 GOLDO DCT SUTIS UM603 PEREN UN128 RUGAS |
| Aircraft | A20N/M-SDE2E3FGHIRWXY/LB1 |
Departure
| Time | 2026-05-05 16:35 |
|---|---|
| Airport | Istanbul Sabiha Gökçen International Airport (LTFJ) |
Arrival
| Time | 2026-05-05 17:39 |
|---|---|
| Airport | Skopje International Airport (LWSK) |
| Time | Latitude | Longitude | Altitude | Speed | Heading |
|---|---|---|---|---|---|
| 2026-05-05 15:57 | 40.90435 | 29.31634 | 320 ft | 0 kts | 153° |
| 2026-05-05 16:23 | 40.90442 | 29.31630 | 321 ft | 2 kts | 153° |
| 2026-05-05 16:24 | 40.90455 | 29.31621 | 320 ft | 2 kts | 153° |
| 2026-05-05 16:24 | 40.90468 | 29.31612 | 320 ft | 2 kts | 153° |
| 2026-05-05 16:24 | 40.90498 | 29.31606 | 320 ft | 2 kts | 198° |
| 2026-05-05 16:25 | 40.90511 | 29.31616 | 321 ft | 2 kts | 222° |
| 2026-05-05 16:25 | 40.90522 | 29.31637 | 320 ft | 0 kts | 244° |
| 2026-05-05 16:27 | 40.90522 | 29.31636 | 320 ft | 0 kts | 244° |
| 2026-05-05 16:27 | 40.90514 | 29.31615 | 320 ft | 4 kts | 244° |
| 2026-05-05 16:27 | 40.90496 | 29.31564 | 320 ft | 7 kts | 244° |
| 2026-05-05 16:28 | 40.90471 | 29.31496 | 320 ft | 8 kts | 243° |
| 2026-05-05 16:28 | 40.90431 | 29.31431 | 320 ft | 9 kts | 195° |
| 2026-05-05 16:28 | 40.90370 | 29.31465 | 320 ft | 10 kts | 154° |
| 2026-05-05 16:28 | 40.90299 | 29.31496 | 320 ft | 11 kts | 193° |
| 2026-05-05 16:29 | 40.90247 | 29.31417 | 320 ft | 12 kts | 242° |
| 2026-05-05 16:29 | 40.90210 | 29.31314 | 320 ft | 12 kts | 243° |
| 2026-05-05 16:29 | 40.90169 | 29.31205 | 320 ft | 13 kts | 244° |
| 2026-05-05 16:29 | 40.90125 | 29.31089 | 320 ft | 14 kts | 243° |
| 2026-05-05 16:30 | 40.90081 | 29.30967 | 320 ft | 14 kts | 243° |
| 2026-05-05 16:30 | 40.90033 | 29.30842 | 320 ft | 15 kts | 243° |
| 2026-05-05 16:30 | 40.89988 | 29.30712 | 320 ft | 15 kts | 244° |
| 2026-05-05 16:30 | 40.89939 | 29.30580 | 320 ft | 16 kts | 244° |
| 2026-05-05 16:31 | 40.89890 | 29.30443 | 320 ft | 16 kts | 244° |
| 2026-05-05 16:31 | 40.89836 | 29.30308 | 320 ft | 16 kts | 243° |
| 2026-05-05 16:31 | 40.89785 | 29.30166 | 320 ft | 17 kts | 244° |
| 2026-05-05 16:31 | 40.89733 | 29.30024 | 320 ft | 17 kts | 244° |
| 2026-05-05 16:32 | 40.89681 | 29.29879 | 320 ft | 17 kts | 244° |
| 2026-05-05 16:32 | 40.89628 | 29.29735 | 320 ft | 17 kts | 243° |
| 2026-05-05 16:32 | 40.89575 | 29.29590 | 320 ft | 17 kts | 243° |
| 2026-05-05 16:32 | 40.89520 | 29.29444 | 320 ft | 17 kts | 244° |
| 2026-05-05 16:33 | 40.89468 | 29.29302 | 320 ft | 15 kts | 240° |
| 2026-05-05 16:33 | 40.89395 | 29.29258 | 320 ft | 11 kts | 163° |
| 2026-05-05 16:33 | 40.89355 | 29.29280 | 320 ft | 0 kts | 155° |
| 2026-05-05 16:33 | 40.89351 | 29.29283 | 320 ft | 1 kts | 155° |
| 2026-05-05 16:34 | 40.89310 | 29.29311 | 320 ft | 13 kts | 141° |
| 2026-05-05 16:34 | 40.89307 | 29.29431 | 320 ft | 16 kts | 62° |
| 2026-05-05 16:34 | 40.89432 | 29.29775 | 321 ft | 76 kts | 63° |
| 2026-05-05 16:34 | 40.89769 | 29.30692 | 321 ft | 139 kts | 64° |
| 2026-05-05 16:35 | 40.90253 | 29.31984 | 542 ft | 166 kts | 63° |
| 2026-05-05 16:35 | 40.90756 | 29.33384 | 1195 ft | 166 kts | 62° |
| 2026-05-05 16:35 | 40.91248 | 29.34729 | 1967 ft | 162 kts | 60° |
| 2026-05-05 16:35 | 40.91754 | 29.36091 | 2565 ft | 172 kts | 60° |
| 2026-05-05 16:36 | 40.92304 | 29.37560 | 3086 ft | 187 kts | 60° |
| 2026-05-05 16:36 | 40.92905 | 29.39199 | 3549 ft | 207 kts | 64° |
| 2026-05-05 16:36 | 40.93106 | 29.41159 | 4080 ft | 227 kts | 95° |
| 2026-05-05 16:36 | 40.92479 | 29.43123 | 4714 ft | 244 kts | 128° |
| 2026-05-05 16:37 | 40.91144 | 29.44434 | 5710 ft | 241 kts | 153° |
| 2026-05-05 16:37 | 40.89611 | 29.45370 | 6583 ft | 243 kts | 154° |
| 2026-05-05 16:37 | 40.88041 | 29.46308 | 7393 ft | 247 kts | 154° |
| 2026-05-05 16:37 | 40.86419 | 29.47097 | 8192 ft | 252 kts | 173° |
| 2026-05-05 16:38 | 40.84737 | 29.46741 | 8954 ft | 250 kts | 212° |
| 2026-05-05 16:38 | 40.83543 | 29.45143 | 9716 ft | 244 kts | 251° |
| 2026-05-05 16:38 | 40.83317 | 29.42996 | 10444 ft | 237 kts | 282° |
| 2026-05-05 16:38 | 40.83580 | 29.40867 | 11162 ft | 241 kts | 282° |
| 2026-05-05 16:39 | 40.83787 | 29.38629 | 11794 ft | 249 kts | 280° |
| 2026-05-05 16:39 | 40.83944 | 29.36297 | 12209 ft | 267 kts | 278° |
| 2026-05-05 16:39 | 40.84072 | 29.33744 | 12621 ft | 285 kts | 277° |
| 2026-05-05 16:39 | 40.84179 | 29.31036 | 13108 ft | 299 kts | 276° |
| 2026-05-05 16:40 | 40.84270 | 29.28243 | 13817 ft | 305 kts | 276° |
| 2026-05-05 16:40 | 40.84353 | 29.25419 | 14584 ft | 308 kts | 275° |
| 2026-05-05 16:40 | 40.84433 | 29.22556 | 15225 ft | 315 kts | 275° |
| 2026-05-05 16:40 | 40.84515 | 29.19573 | 15574 ft | 332 kts | 275° |
| 2026-05-05 16:41 | 40.84597 | 29.16469 | 15875 ft | 349 kts | 275° |
| 2026-05-05 16:41 | 40.84681 | 29.13199 | 16241 ft | 363 kts | 275° |
| 2026-05-05 16:41 | 40.84766 | 29.09805 | 16844 ft | 369 kts | 274° |
| 2026-05-05 16:41 | 40.84848 | 29.06412 | 17393 ft | 376 kts | 274° |
| 2026-05-05 16:42 | 40.84933 | 29.02877 | 17656 ft | 391 kts | 274° |
| 2026-05-05 16:42 | 40.85021 | 28.99208 | 17901 ft | 405 kts | 274° |
| 2026-05-05 16:42 | 40.85111 | 28.95413 | 18222 ft | 415 kts | 274° |
| 2026-05-05 16:42 | 40.85199 | 28.91595 | 18750 ft | 420 kts | 274° |
| 2026-05-05 16:43 | 40.85284 | 28.87698 | 19332 ft | 423 kts | 274° |
| 2026-05-05 16:43 | 40.85370 | 28.83818 | 19888 ft | 426 kts | 274° |
| 2026-05-05 16:43 | 40.85456 | 28.79820 | 20430 ft | 430 kts | 274° |
| 2026-05-05 16:43 | 40.85540 | 28.75930 | 20943 ft | 433 kts | 274° |
| 2026-05-05 16:44 | 40.85627 | 28.71872 | 21473 ft | 436 kts | 274° |
| 2026-05-05 16:44 | 40.85709 | 28.67964 | 21979 ft | 439 kts | 274° |
| 2026-05-05 16:44 | 40.85795 | 28.63858 | 22480 ft | 442 kts | 274° |
| 2026-05-05 16:44 | 40.85879 | 28.59756 | 22983 ft | 445 kts | 274° |
| 2026-05-05 16:45 | 40.85961 | 28.55677 | 23449 ft | 447 kts | 274° |
| 2026-05-05 16:45 | 40.86044 | 28.51546 | 23881 ft | 450 kts | 274° |
| 2026-05-05 16:45 | 40.86124 | 28.47359 | 24047 ft | 452 kts | 274° |
| 2026-05-05 16:45 | 40.86203 | 28.43164 | 24055 ft | 451 kts | 274° |
| 2026-05-05 16:46 | 40.86279 | 28.39012 | 24059 ft | 450 kts | 275° |
| 2026-05-05 16:46 | 40.86354 | 28.34858 | 24054 ft | 450 kts | 274° |
| 2026-05-05 16:46 | 40.86429 | 28.30701 | 24078 ft | 453 kts | 274° |
| 2026-05-05 16:46 | 40.86504 | 28.26491 | 24410 ft | 457 kts | 274° |
| 2026-05-05 16:47 | 40.86577 | 28.22243 | 24903 ft | 458 kts | 274° |
| 2026-05-05 16:47 | 40.86649 | 28.17927 | 25331 ft | 459 kts | 274° |
| 2026-05-05 16:47 | 40.86721 | 28.13606 | 25696 ft | 462 kts | 274° |
| 2026-05-05 16:47 | 40.86789 | 28.09342 | 26012 ft | 464 kts | 274° |
| 2026-05-05 16:48 | 40.86857 | 28.05050 | 26327 ft | 467 kts | 274° |
| 2026-05-05 16:48 | 40.86923 | 28.00697 | 26624 ft | 469 kts | 274° |
| 2026-05-05 16:48 | 40.86988 | 27.96378 | 26899 ft | 471 kts | 274° |
| 2026-05-05 16:48 | 40.87050 | 27.92082 | 27154 ft | 473 kts | 274° |
| 2026-05-05 16:49 | 40.87113 | 27.87688 | 27439 ft | 474 kts | 274° |
| 2026-05-05 16:49 | 40.87171 | 27.83353 | 27689 ft | 475 kts | 274° |
| 2026-05-05 16:49 | 40.87231 | 27.78872 | 27918 ft | 477 kts | 274° |
| 2026-05-05 16:49 | 40.87288 | 27.74492 | 28124 ft | 479 kts | 274° |
| 2026-05-05 16:50 | 40.87344 | 27.70037 | 28413 ft | 478 kts | 274° |
| 2026-05-05 16:50 | 40.87396 | 27.65626 | 29085 ft | 469 kts | 274° |
| 2026-05-05 16:50 | 40.87442 | 27.61388 | 29838 ft | 460 kts | 274° |
| 2026-05-05 16:50 | 40.87490 | 27.57179 | 30183 ft | 460 kts | 275° |
| 2026-05-05 16:51 | 40.87539 | 27.52922 | 30334 ft | 464 kts | 275° |
| 2026-05-05 16:51 | 40.87588 | 27.48574 | 30536 ft | 466 kts | 275° |
| 2026-05-05 16:51 | 40.87634 | 27.44328 | 30773 ft | 467 kts | 275° |
| 2026-05-05 16:51 | 40.87677 | 27.39984 | 31015 ft | 467 kts | 275° |
| 2026-05-05 16:52 | 40.87718 | 27.35698 | 31255 ft | 467 kts | 275° |
| 2026-05-05 16:52 | 40.87757 | 27.31365 | 31689 ft | 463 kts | 274° |
| 2026-05-05 16:52 | 40.87795 | 27.27114 | 32001 ft | 461 kts | 274° |
| 2026-05-05 16:52 | 40.87832 | 27.22826 | 32035 ft | 459 kts | 274° |
| 2026-05-05 16:53 | 40.87899 | 27.14376 | 32040 ft | 457 kts | 275° |
| 2026-05-05 16:53 | 40.87961 | 27.05979 | 32044 ft | 455 kts | 275° |
| 2026-05-05 16:54 | 40.88016 | 26.97636 | 32043 ft | 454 kts | 275° |
| 2026-05-05 16:54 | 40.88064 | 26.89297 | 32045 ft | 453 kts | 275° |
| 2026-05-05 16:55 | 40.88107 | 26.80912 | 32045 ft | 453 kts | 275° |
| 2026-05-05 16:55 | 40.88144 | 26.72568 | 32044 ft | 452 kts | 275° |
| 2026-05-05 16:56 | 40.88174 | 26.64147 | 32042 ft | 452 kts | 275° |
| 2026-05-05 16:56 | 40.88199 | 26.55841 | 32040 ft | 451 kts | 275° |
| 2026-05-05 16:57 | 40.88217 | 26.47455 | 32038 ft | 451 kts | 275° |
| 2026-05-05 16:57 | 40.88227 | 26.39186 | 32037 ft | 449 kts | 275° |
| 2026-05-05 16:58 | 40.88231 | 26.30910 | 32034 ft | 449 kts | 274° |
| 2026-05-05 16:58 | 40.87899 | 26.22578 | 32033 ft | 452 kts | 269° |
| 2026-05-05 16:59 | 40.87259 | 26.14230 | 32027 ft | 446 kts | 276° |
| 2026-05-05 16:59 | 40.88139 | 26.06178 | 32032 ft | 441 kts | 286° |
| 2026-05-05 17:00 | 40.89375 | 25.98245 | 32030 ft | 441 kts | 286° |
| 2026-05-05 17:00 | 40.90598 | 25.90283 | 32030 ft | 439 kts | 286° |
| 2026-05-05 17:01 | 40.91801 | 25.82331 | 32030 ft | 440 kts | 286° |
| 2026-05-05 17:01 | 40.92994 | 25.74374 | 32033 ft | 440 kts | 286° |
| 2026-05-05 17:02 | 40.94178 | 25.66411 | 32035 ft | 439 kts | 285° |
| 2026-05-05 17:02 | 40.95346 | 25.58511 | 32032 ft | 439 kts | 286° |
| 2026-05-05 17:03 | 40.96515 | 25.50566 | 32032 ft | 438 kts | 286° |
| 2026-05-05 17:03 | 40.97680 | 25.42603 | 32030 ft | 438 kts | 286° |
| 2026-05-05 17:04 | 40.98793 | 25.34962 | 32028 ft | 438 kts | 285° |
| 2026-05-05 17:04 | 40.99951 | 25.26972 | 32025 ft | 439 kts | 285° |
| 2026-05-05 17:05 | 41.01102 | 25.18983 | 32026 ft | 439 kts | 285° |
| 2026-05-05 17:05 | 41.02241 | 25.11039 | 32025 ft | 438 kts | 285° |
| 2026-05-05 17:06 | 41.03372 | 25.03110 | 32025 ft | 439 kts | 285° |
| 2026-05-05 17:06 | 41.04505 | 24.95130 | 32023 ft | 438 kts | 285° |
| 2026-05-05 17:07 | 41.05633 | 24.87158 | 32030 ft | 438 kts | 285° |
| 2026-05-05 17:07 | 41.06765 | 24.79104 | 32033 ft | 438 kts | 285° |
| 2026-05-05 17:08 | 41.07869 | 24.71187 | 32033 ft | 437 kts | 285° |
| 2026-05-05 17:08 | 41.08972 | 24.63249 | 32036 ft | 437 kts | 285° |
| 2026-05-05 17:09 | 41.10062 | 24.55364 | 32036 ft | 436 kts | 285° |
| 2026-05-05 17:09 | 41.11158 | 24.47397 | 32034 ft | 437 kts | 285° |
| 2026-05-05 17:10 | 41.12254 | 24.39389 | 32033 ft | 437 kts | 285° |
| 2026-05-05 17:10 | 41.13337 | 24.31425 | 32040 ft | 437 kts | 284° |
| 2026-05-05 17:11 | 41.14408 | 24.23514 | 32048 ft | 437 kts | 284° |
| 2026-05-05 17:11 | 41.15470 | 24.15617 | 32052 ft | 436 kts | 284° |
| 2026-05-05 17:12 | 41.16536 | 24.07652 | 32051 ft | 437 kts | 284° |
| 2026-05-05 17:12 | 41.17588 | 23.99756 | 32049 ft | 437 kts | 284° |
| 2026-05-05 17:13 | 41.18637 | 23.91831 | 32050 ft | 437 kts | 284° |
| 2026-05-05 17:13 | 41.19685 | 23.83867 | 32053 ft | 436 kts | 284° |
| 2026-05-05 17:14 | 41.20720 | 23.75943 | 32060 ft | 435 kts | 284° |
| 2026-05-05 17:14 | 41.21749 | 23.68041 | 32063 ft | 434 kts | 284° |
| 2026-05-05 17:15 | 41.22776 | 23.60119 | 32066 ft | 434 kts | 284° |
| 2026-05-05 17:15 | 41.23799 | 23.52168 | 32071 ft | 434 kts | 284° |
| 2026-05-05 17:16 | 41.24812 | 23.44253 | 32068 ft | 433 kts | 284° |
| 2026-05-05 17:16 | 41.25816 | 23.36350 | 32048 ft | 431 kts | 284° |
| 2026-05-05 17:17 | 41.26314 | 23.32403 | 31880 ft | 425 kts | 283° |
| 2026-05-05 17:17 | 41.26799 | 23.28559 | 31656 ft | 413 kts | 284° |
| 2026-05-05 17:17 | 41.27259 | 23.24883 | 31502 ft | 399 kts | 284° |
| 2026-05-05 17:17 | 41.27710 | 23.21278 | 31278 ft | 387 kts | 284° |
| 2026-05-05 17:18 | 41.28153 | 23.17733 | 31064 ft | 376 kts | 284° |
| 2026-05-05 17:18 | 41.28574 | 23.14362 | 30856 ft | 365 kts | 284° |
| 2026-05-05 17:18 | 41.28983 | 23.11081 | 30467 ft | 360 kts | 284° |
| 2026-05-05 17:18 | 41.29397 | 23.07778 | 29975 ft | 357 kts | 284° |
| 2026-05-05 17:19 | 41.29804 | 23.04522 | 29328 ft | 359 kts | 284° |
| 2026-05-05 17:19 | 41.30210 | 23.01260 | 28724 ft | 360 kts | 284° |
| 2026-05-05 17:19 | 41.30613 | 22.98020 | 28145 ft | 360 kts | 284° |
| 2026-05-05 17:19 | 41.31017 | 22.94725 | 27614 ft | 358 kts | 284° |
| 2026-05-05 17:20 | 41.31413 | 22.91501 | 27097 ft | 357 kts | 284° |
| 2026-05-05 17:20 | 41.31811 | 22.88250 | 26576 ft | 355 kts | 284° |
| 2026-05-05 17:20 | 41.32208 | 22.85007 | 26057 ft | 354 kts | 284° |
| 2026-05-05 17:20 | 41.32586 | 22.81814 | 25543 ft | 354 kts | 282° |
| 2026-05-05 17:21 | 41.32862 | 22.78546 | 25022 ft | 354 kts | 279° |
| 2026-05-05 17:21 | 41.32985 | 22.75301 | 24723 ft | 348 kts | 276° |
| 2026-05-05 17:21 | 41.33028 | 22.72127 | 24286 ft | 346 kts | 276° |
| 2026-05-05 17:22 | 41.33109 | 22.65639 | 23001 ft | 352 kts | 275° |
| 2026-05-05 17:22 | 41.33145 | 22.62415 | 22090 ft | 352 kts | 275° |
| 2026-05-05 17:22 | 41.33179 | 22.59216 | 21180 ft | 349 kts | 275° |
| 2026-05-05 17:22 | 41.33211 | 22.56002 | 20305 ft | 345 kts | 275° |
| 2026-05-05 17:23 | 41.33244 | 22.52797 | 19405 ft | 350 kts | 275° |
| 2026-05-05 17:23 | 41.33279 | 22.49470 | 18519 ft | 358 kts | 274° |
| 2026-05-05 17:23 | 41.33310 | 22.46218 | 18194 ft | 351 kts | 274° |
| 2026-05-05 17:23 | 41.33335 | 22.42979 | 17867 ft | 347 kts | 274° |
| 2026-05-05 17:24 | 41.33361 | 22.39801 | 17548 ft | 346 kts | 274° |
| 2026-05-05 17:24 | 41.33388 | 22.36584 | 17223 ft | 344 kts | 274° |
| 2026-05-05 17:24 | 41.33414 | 22.33413 | 16897 ft | 342 kts | 273° |
| 2026-05-05 17:24 | 41.33440 | 22.30237 | 16494 ft | 342 kts | 273° |
| 2026-05-05 17:25 | 41.33464 | 22.27114 | 15938 ft | 344 kts | 273° |
| 2026-05-05 17:25 | 41.33472 | 22.26032 | 15726 ft | 345 kts | 273° |
| 2026-05-05 17:25 | 41.33511 | 22.20755 | 14897 ft | 343 kts | 273° |
| 2026-05-05 17:25 | 41.33532 | 22.17604 | 14473 ft | 340 kts | 272° |
| 2026-05-05 17:26 | 41.33551 | 22.14449 | 14045 ft | 337 kts | 273° |
| 2026-05-05 17:26 | 41.33570 | 22.11348 | 13618 ft | 334 kts | 272° |
| 2026-05-05 17:26 | 41.33589 | 22.08298 | 13198 ft | 331 kts | 272° |
| 2026-05-05 17:26 | 41.33605 | 22.05254 | 12773 ft | 328 kts | 272° |
| 2026-05-05 17:27 | 41.33622 | 22.02219 | 12346 ft | 326 kts | 272° |
| 2026-05-05 17:27 | 41.33638 | 21.99223 | 11933 ft | 323 kts | 272° |
| 2026-05-05 17:27 | 41.33649 | 21.96274 | 11723 ft | 313 kts | 272° |
| 2026-05-05 17:27 | 41.33662 | 21.93411 | 11510 ft | 304 kts | 272° |
| 2026-05-05 17:28 | 41.33685 | 21.90621 | 11231 ft | 300 kts | 276° |
| 2026-05-05 17:28 | 41.34061 | 21.87960 | 10921 ft | 293 kts | 290° |
| 2026-05-05 17:28 | 41.34920 | 21.85513 | 10625 ft | 287 kts | 302° |
| 2026-05-05 17:28 | 41.36002 | 21.83338 | 10334 ft | 281 kts | 314° |
| 2026-05-05 17:29 | 41.37598 | 21.81875 | 10056 ft | 274 kts | 339° |
| 2026-05-05 17:29 | 41.39396 | 21.81146 | 9791 ft | 270 kts | 346° |
| 2026-05-05 17:29 | 41.41215 | 21.80585 | 9527 ft | 269 kts | 347° |
| 2026-05-05 17:29 | 41.43043 | 21.80038 | 9305 ft | 269 kts | 347° |
| 2026-05-05 17:30 | 41.44887 | 21.79475 | 9081 ft | 269 kts | 347° |
| 2026-05-05 17:30 | 41.46694 | 21.78912 | 8859 ft | 268 kts | 347° |
| 2026-05-05 17:30 | 41.48519 | 21.78335 | 8634 ft | 267 kts | 347° |
| 2026-05-05 17:30 | 41.50314 | 21.77762 | 8381 ft | 267 kts | 347° |
| 2026-05-05 17:31 | 41.52134 | 21.77178 | 8123 ft | 265 kts | 346° |
| 2026-05-05 17:31 | 41.53924 | 21.76603 | 7947 ft | 265 kts | 347° |
| 2026-05-05 17:31 | 41.55734 | 21.76065 | 7775 ft | 265 kts | 348° |
| 2026-05-05 17:31 | 41.57531 | 21.75531 | 7603 ft | 265 kts | 347° |
| 2026-05-05 17:32 | 41.59329 | 21.74969 | 7425 ft | 264 kts | 346° |
| 2026-05-05 17:32 | 41.61117 | 21.74383 | 7249 ft | 263 kts | 346° |
| 2026-05-05 17:32 | 41.62871 | 21.73787 | 7080 ft | 263 kts | 346° |
| 2026-05-05 17:32 | 41.64648 | 21.73171 | 6909 ft | 261 kts | 345° |
| 2026-05-05 17:33 | 41.66407 | 21.72553 | 6728 ft | 253 kts | 345° |
| 2026-05-05 17:33 | 41.68071 | 21.71966 | 6510 ft | 248 kts | 345° |
| 2026-05-05 17:33 | 41.69756 | 21.71370 | 6159 ft | 247 kts | 345° |
| 2026-05-05 17:33 | 41.71401 | 21.70790 | 5807 ft | 242 kts | 346° |
| 2026-05-05 17:34 | 41.73024 | 21.70218 | 5461 ft | 236 kts | 346° |
| 2026-05-05 17:34 | 41.74578 | 21.69672 | 5137 ft | 230 kts | 346° |
| 2026-05-05 17:34 | 41.76118 | 21.69132 | 4820 ft | 229 kts | 346° |
| 2026-05-05 17:34 | 41.77658 | 21.68593 | 4494 ft | 228 kts | 346° |
| 2026-05-05 17:35 | 41.79189 | 21.68058 | 4170 ft | 224 kts | 346° |
| 2026-05-05 17:35 | 41.80693 | 21.67533 | 3850 ft | 224 kts | 346° |
| 2026-05-05 17:35 | 41.82186 | 21.67012 | 3535 ft | 218 kts | 346° |
| 2026-05-05 17:35 | 41.83611 | 21.66515 | 3306 ft | 205 kts | 346° |
| 2026-05-05 17:36 | 41.84981 | 21.66037 | 2980 ft | 198 kts | 346° |
| 2026-05-05 17:36 | 41.86272 | 21.65587 | 2665 ft | 184 kts | 346° |
| 2026-05-05 17:36 | 41.87459 | 21.65172 | 2417 ft | 169 kts | 346° |
| 2026-05-05 17:36 | 41.88551 | 21.64792 | 2176 ft | 156 kts | 347° |
| 2026-05-05 17:37 | 41.89595 | 21.64429 | 1961 ft | 152 kts | 346° |
| 2026-05-05 17:37 | 41.90274 | 21.64192 | 1828 ft | 151 kts | 347° |
| 2026-05-05 17:37 | 41.91627 | 21.63724 | 1563 ft | 149 kts | 346° |
| 2026-05-05 17:37 | 41.92631 | 21.63368 | 1357 ft | 149 kts | 346° |
| 2026-05-05 17:38 | 41.93644 | 21.63016 | 1133 ft | 148 kts | 346° |
| 2026-05-05 17:38 | 41.94638 | 21.62670 | 916 ft | 148 kts | 346° |
| 2026-05-05 17:38 | 41.95638 | 21.62325 | 782 ft | 142 kts | 346° |
| 2026-05-05 17:38 | 41.96456 | 21.62045 | 783 ft | 98 kts | 347° |
| 2026-05-05 17:39 | 41.96947 | 21.61871 | 785 ft | 44 kts | 346° |
| 2026-05-05 17:39 | 41.97148 | 21.61799 | 783 ft | 15 kts | 344° |
| 2026-05-05 17:39 | 41.97216 | 21.61763 | 783 ft | 6 kts | 40° |
| 2026-05-05 17:39 | 41.97176 | 21.61795 | 783 ft | 11 kts | 171° |
| 2026-05-05 17:40 | 41.97060 | 21.61834 | 784 ft | 17 kts | 163° |
| 2026-05-05 17:40 | 41.97004 | 21.61941 | 786 ft | 14 kts | 108° |
| 2026-05-05 17:40 | 41.96948 | 21.62043 | 788 ft | 13 kts | 128° |
| 2026-05-05 17:40 | 41.96892 | 21.62136 | 790 ft | 12 kts | 133° |
| 2026-05-05 17:41 | 41.96820 | 21.62184 | 791 ft | 11 kts | 166° |
| 2026-05-05 17:41 | 41.96732 | 21.62215 | 791 ft | 14 kts | 165° |